sensor_id;sensor_type;location;lat;lon;timestamp;P1;durP1;ratioP1;P2;durP2;ratioP2
11305;SDS011;5708;50.660;6.778;2022-08-01T00:00:20;3.03;;;1.27;;
11305;SDS011;5708;50.660;6.778;2022-08-01T00:02:46;2.75;;;1.20;;
11305;SDS011;5708;50.660;6.778;2022-08-01T00:05:11;4.60;;;1.45;;
11305;SDS011;5708;50.660;6.778;2022-08-01T00:07:37;3.03;;;1.08;;
11305;SDS011;5708;50.660;6.778;2022-08-01T00:10:03;3.70;;;1.27;;
11305;SDS011;5708;50.660;6.778;2022-08-01T00:12:29;3.15;;;1.20;;
11305;SDS011;5708;50.660;6.778;2022-08-01T00:14:54;3.70;;;1.25;;
11305;SDS011;5708;50.660;6.778;2022-08-01T00:17:19;3.00;;;1.17;;
11305;SDS011;5708;50.660;6.778;2022-08-01T00:19:45;3.75;;;1.42;;
11305;SDS011;5708;50.660;6.778;2022-08-01T00:22:10;2.67;;;0.98;;
11305;SDS011;5708;50.660;6.778;2022-08-01T00:24:35;3.30;;;1.02;;
11305;SDS011;5708;50.660;6.778;2022-08-01T00:27:01;2.08;;;1.17;;
11305;SDS011;5708;50.660;6.778;2022-08-01T00:29:26;3.80;;;1.40;;
11305;SDS011;5708;50.660;6.778;2022-08-01T00:31:51;2.85;;;1.35;;
11305;SDS011;5708;50.660;6.778;2022-08-01T00:34:17;5.07;;;1.60;;
11305;SDS011;5708;50.660;6.778;2022-08-01T00:36:42;2.95;;;1.40;;
11305;SDS011;5708;50.660;6.778;2022-08-01T00:39:07;4.15;;;1.63;;
11305;SDS011;5708;50.660;6.778;2022-08-01T00:41:33;3.72;;;1.75;;
11305;SDS011;5708;50.660;6.778;2022-08-01T00:44:01;5.53;;;1.80;;
11305;SDS011;5708;50.660;6.778;2022-08-01T00:46:28;4.07;;;1.42;;
11305;SDS011;5708;50.660;6.778;2022-08-01T00:48:53;2.58;;;1.52;;
11305;SDS011;5708;50.660;6.778;2022-08-01T00:51:19;2.50;;;1.52;;
11305;SDS011;5708;50.660;6.778;2022-08-01T00:53:45;3.03;;;1.80;;
11305;SDS011;5708;50.660;6.778;2022-08-01T00:56:10;4.60;;;1.50;;
11305;SDS011;5708;50.660;6.778;2022-08-01T00:58:36;5.28;;;1.60;;
11305;SDS011;5708;50.660;6.778;2022-08-01T01:01:01;3.75;;;1.58;;
11305;SDS011;5708;50.660;6.778;2022-08-01T01:03:27;2.72;;;1.30;;
11305;SDS011;5708;50.660;6.778;2022-08-01T01:05:59;2.45;;;1.42;;
11305;SDS011;5708;50.660;6.778;2022-08-01T01:08:33;2.70;;;1.50;;
11305;SDS011;5708;50.660;6.778;2022-08-01T01:11:10;2.70;;;1.50;;
11305;SDS011;5708;50.660;6.778;2022-08-01T01:13:49;4.53;;;1.65;;
11305;SDS011;5708;50.660;6.778;2022-08-01T01:16:19;3.15;;;1.35;;
11305;SDS011;5708;50.660;6.778;2022-08-01T01:18:46;5.65;;;1.58;;
11305;SDS011;5708;50.660;6.778;2022-08-01T01:29:16;3.05;;;1.60;;
11305;SDS011;5708;50.660;6.778;2022-08-01T01:31:44;2.00;;;1.40;;
11305;SDS011;5708;50.660;6.778;2022-08-01T01:34:13;3.25;;;1.65;;
11305;SDS011;5708;50.660;6.778;2022-08-01T01:36:40;3.88;;;1.55;;
11305;SDS011;5708;50.660;6.778;2022-08-01T01:39:07;2.47;;;1.17;;
11305;SDS011;5708;50.660;6.778;2022-08-01T01:41:33;3.78;;;1.67;;
11305;SDS011;5708;50.660;6.778;2022-08-01T01:44:00;2.45;;;1.60;;
11305;SDS011;5708;50.660;6.778;2022-08-01T01:46:27;3.13;;;1.40;;
11305;SDS011;5708;50.660;6.778;2022-08-01T01:48:54;3.22;;;1.27;;
11305;SDS011;5708;50.660;6.778;2022-08-01T01:51:21;2.10;;;1.30;;
11305;SDS011;5708;50.660;6.778;2022-08-01T01:53:48;4.00;;;1.60;;
11305;SDS011;5708;50.660;6.778;2022-08-01T01:56:14;3.83;;;1.33;;
11305;SDS011;5708;50.660;6.778;2022-08-01T01:58:41;3.92;;;1.40;;
11305;SDS011;5708;50.660;6.778;2022-08-01T02:01:07;1.52;;;0.90;;
11305;SDS011;5708;50.660;6.778;2022-08-01T02:03:33;2.50;;;1.40;;
11305;SDS011;5708;50.660;6.778;2022-08-01T02:06:01;2.47;;;1.55;;
11305;SDS011;5708;50.660;6.778;2022-08-01T02:08:27;3.17;;;1.40;;
11305;SDS011;5708;50.660;6.778;2022-08-01T02:10:54;2.97;;;1.20;;
11305;SDS011;5708;50.660;6.778;2022-08-01T02:13:38;3.55;;;1.50;;
11305;SDS011;5708;50.660;6.778;2022-08-01T02:16:04;4.35;;;1.70;;
11305;SDS011;5708;50.660;6.778;2022-08-01T02:18:30;4.43;;;1.67;;
11305;SDS011;5708;50.660;6.778;2022-08-01T02:20:56;3.20;;;2.00;;
11305;SDS011;5708;50.660;6.778;2022-08-01T02:23:23;4.70;;;2.20;;
11305;SDS011;5708;50.660;6.778;2022-08-01T02:25:49;3.58;;;1.90;;
11305;SDS011;5708;50.660;6.778;2022-08-01T02:28:23;4.93;;;2.05;;
11305;SDS011;5708;50.660;6.778;2022-08-01T02:30:53;3.00;;;1.70;;
11305;SDS011;5708;50.660;6.778;2022-08-01T02:33:23;3.63;;;1.90;;
11305;SDS011;5708;50.660;6.778;2022-08-01T02:35:50;4.43;;;2.10;;
11305;SDS011;5708;50.660;6.778;2022-08-01T02:38:18;4.47;;;2.10;;
11305;SDS011;5708;50.660;6.778;2022-08-01T02:40:46;5.15;;;1.98;;
11305;SDS011;5708;50.660;6.778;2022-08-01T02:43:12;6.18;;;2.60;;
11305;SDS011;5708;50.660;6.778;2022-08-01T02:45:42;4.68;;;2.25;;
11305;SDS011;5708;50.660;6.778;2022-08-01T02:48:12;5.55;;;3.05;;
11305;SDS011;5708;50.660;6.778;2022-08-01T02:50:38;5.65;;;3.00;;
11305;SDS011;5708;50.660;6.778;2022-08-01T02:53:05;5.75;;;2.97;;
11305;SDS011;5708;50.660;6.778;2022-08-01T02:55:31;8.27;;;3.10;;
11305;SDS011;5708;50.660;6.778;2022-08-01T02:57:57;5.15;;;2.97;;
11305;SDS011;5708;50.660;6.778;2022-08-01T03:00:24;4.93;;;3.17;;
11305;SDS011;5708;50.660;6.778;2022-08-01T03:02:51;6.72;;;2.92;;
11305;SDS011;5708;50.660;6.778;2022-08-01T03:05:19;6.30;;;2.88;;
11305;SDS011;5708;50.660;6.778;2022-08-01T03:07:45;7.63;;;3.53;;
11305;SDS011;5708;50.660;6.778;2022-08-01T03:10:10;5.80;;;2.95;;
11305;SDS011;5708;50.660;6.778;2022-08-01T03:12:36;7.18;;;3.30;;
11305;SDS011;5708;50.660;6.778;2022-08-01T03:15:03;6.72;;;3.10;;
11305;SDS011;5708;50.660;6.778;2022-08-01T03:17:29;9.38;;;3.30;;
11305;SDS011;5708;50.660;6.778;2022-08-01T03:19:58;5.60;;;3.15;;
11305;SDS011;5708;50.660;6.778;2022-08-01T03:22:25;8.00;;;3.40;;
11305;SDS011;5708;50.660;6.778;2022-08-01T03:24:52;6.88;;;3.33;;
11305;SDS011;5708;50.660;6.778;2022-08-01T03:27:21;7.88;;;3.22;;
11305;SDS011;5708;50.660;6.778;2022-08-01T03:29:48;5.95;;;3.30;;
11305;SDS011;5708;50.660;6.778;2022-08-01T03:32:14;9.25;;;3.67;;
11305;SDS011;5708;50.660;6.778;2022-08-01T03:34:40;7.90;;;3.67;;
11305;SDS011;5708;50.660;6.778;2022-08-01T03:37:07;5.97;;;3.53;;
11305;SDS011;5708;50.660;6.778;2022-08-01T03:39:40;10.27;;;3.72;;
11305;SDS011;5708;50.660;6.778;2022-08-01T03:42:12;8.32;;;3.45;;
11305;SDS011;5708;50.660;6.778;2022-08-01T03:44:39;7.10;;;3.20;;
11305;SDS011;5708;50.660;6.778;2022-08-01T03:47:07;7.43;;;3.80;;
11305;SDS011;5708;50.660;6.778;2022-08-01T03:49:35;6.38;;;3.50;;
11305;SDS011;5708;50.660;6.778;2022-08-01T03:52:06;7.43;;;3.65;;
11305;SDS011;5708;50.660;6.778;2022-08-01T03:54:33;7.45;;;3.60;;
11305;SDS011;5708;50.660;6.778;2022-08-01T03:57:00;7.20;;;3.45;;
11305;SDS011;5708;50.660;6.778;2022-08-01T03:59:26;7.57;;;3.35;;
11305;SDS011;5708;50.660;6.778;2022-08-01T04:01:52;8.48;;;3.78;;
11305;SDS011;5708;50.660;6.778;2022-08-01T04:04:18;7.85;;;3.78;;
11305;SDS011;5708;50.660;6.778;2022-08-01T04:06:44;8.27;;;3.72;;
11305;SDS011;5708;50.660;6.778;2022-08-01T04:09:10;7.70;;;4.05;;
11305;SDS011;5708;50.660;6.778;2022-08-01T04:11:35;8.25;;;4.03;;
11305;SDS011;5708;50.660;6.778;2022-08-01T04:14:01;8.93;;;4.13;;
11305;SDS011;5708;50.660;6.778;2022-08-01T04:16:26;7.20;;;3.70;;
11305;SDS011;5708;50.660;6.778;2022-08-01T04:18:51;10.32;;;4.15;;
11305;SDS011;5708;50.660;6.778;2022-08-01T04:21:24;8.55;;;4.30;;
11305;SDS011;5708;50.660;6.778;2022-08-01T04:23:54;10.55;;;4.60;;
11305;SDS011;5708;50.660;6.778;2022-08-01T04:26:23;8.32;;;4.72;;
11305;SDS011;5708;50.660;6.778;2022-08-01T04:28:49;9.73;;;5.00;;
11305;SDS011;5708;50.660;6.778;2022-08-01T04:31:15;8.88;;;5.00;;
11305;SDS011;5708;50.660;6.778;2022-08-01T04:33:42;8.15;;;4.40;;
11305;SDS011;5708;50.660;6.778;2022-08-01T04:36:10;8.68;;;4.40;;
11305;SDS011;5708;50.660;6.778;2022-08-01T04:38:37;11.40;;;5.13;;
11305;SDS011;5708;50.660;6.778;2022-08-01T04:41:04;7.28;;;4.38;;
11305;SDS011;5708;50.660;6.778;2022-08-01T04:43:31;8.52;;;4.90;;
11305;SDS011;5708;50.660;6.778;2022-08-01T04:45:57;8.25;;;4.38;;
11305;SDS011;5708;50.660;6.778;2022-08-01T04:48:23;7.82;;;4.40;;
11305;SDS011;5708;50.660;6.778;2022-08-01T04:50:49;8.55;;;5.10;;
11305;SDS011;5708;50.660;6.778;2022-08-01T04:53:15;8.68;;;4.82;;
11305;SDS011;5708;50.660;6.778;2022-08-01T04:55:42;7.65;;;4.65;;
11305;SDS011;5708;50.660;6.778;2022-08-01T04:58:09;8.32;;;5.10;;
11305;SDS011;5708;50.660;6.778;2022-08-01T05:00:35;13.35;;;5.38;;
11305;SDS011;5708;50.660;6.778;2022-08-01T05:03:00;9.45;;;5.47;;
11305;SDS011;5708;50.660;6.778;2022-08-01T05:05:26;7.55;;;4.30;;
11305;SDS011;5708;50.660;6.778;2022-08-01T05:07:51;7.22;;;4.22;;
11305;SDS011;5708;50.660;6.778;2022-08-01T05:10:16;10.63;;;4.75;;
11305;SDS011;5708;50.660;6.778;2022-08-01T05:12:42;7.68;;;4.40;;
11305;SDS011;5708;50.660;6.778;2022-08-01T05:15:07;8.98;;;4.70;;
11305;SDS011;5708;50.660;6.778;2022-08-01T05:17:33;8.77;;;4.18;;
11305;SDS011;5708;50.660;6.778;2022-08-01T05:19:58;10.25;;;4.30;;
11305;SDS011;5708;50.660;6.778;2022-08-01T05:22:23;9.95;;;4.93;;
11305;SDS011;5708;50.660;6.778;2022-08-01T05:24:50;10.25;;;4.53;;
11305;SDS011;5708;50.660;6.778;2022-08-01T05:27:16;10.02;;;4.90;;
11305;SDS011;5708;50.660;6.778;2022-08-01T05:29:41;12.75;;;5.25;;
11305;SDS011;5708;50.660;6.778;2022-08-01T05:32:06;12.15;;;5.20;;
11305;SDS011;5708;50.660;6.778;2022-08-01T05:34:32;8.85;;;5.55;;
11305;SDS011;5708;50.660;6.778;2022-08-01T05:36:58;7.93;;;5.15;;
11305;SDS011;5708;50.660;6.778;2022-08-01T05:39:23;9.30;;;5.28;;
11305;SDS011;5708;50.660;6.778;2022-08-01T05:41:48;9.50;;;5.60;;
11305;SDS011;5708;50.660;6.778;2022-08-01T05:44:14;13.25;;;6.10;;
11305;SDS011;5708;50.660;6.778;2022-08-01T05:46:39;8.65;;;5.47;;
11305;SDS011;5708;50.660;6.778;2022-08-01T05:49:04;10.23;;;5.40;;
11305;SDS011;5708;50.660;6.778;2022-08-01T05:51:30;10.77;;;6.40;;
11305;SDS011;5708;50.660;6.778;2022-08-01T05:53:56;11.52;;;6.72;;
11305;SDS011;5708;50.660;6.778;2022-08-01T05:56:21;10.88;;;6.55;;
11305;SDS011;5708;50.660;6.778;2022-08-01T05:58:47;10.13;;;5.93;;
11305;SDS011;5708;50.660;6.778;2022-08-01T06:01:14;15.15;;;7.70;;
11305;SDS011;5708;50.660;6.778;2022-08-01T06:03:39;13.15;;;7.15;;
11305;SDS011;5708;50.660;6.778;2022-08-01T06:06:05;11.77;;;7.80;;
11305;SDS011;5708;50.660;6.778;2022-08-01T06:08:30;12.38;;;6.63;;
11305;SDS011;5708;50.660;6.778;2022-08-01T06:10:56;10.05;;;6.63;;
11305;SDS011;5708;50.660;6.778;2022-08-01T06:13:22;11.75;;;7.05;;
11305;SDS011;5708;50.660;6.778;2022-08-01T06:15:48;12.18;;;7.32;;
11305;SDS011;5708;50.660;6.778;2022-08-01T06:18:13;12.05;;;6.53;;
11305;SDS011;5708;50.660;6.778;2022-08-01T06:20:39;13.05;;;7.35;;
11305;SDS011;5708;50.660;6.778;2022-08-01T06:23:04;12.48;;;6.50;;
11305;SDS011;5708;50.660;6.778;2022-08-01T06:25:30;11.38;;;6.20;;
11305;SDS011;5708;50.660;6.778;2022-08-01T06:27:55;13.95;;;5.93;;
11305;SDS011;5708;50.660;6.778;2022-08-01T06:30:20;10.18;;;5.93;;
11305;SDS011;5708;50.660;6.778;2022-08-01T06:32:46;9.68;;;5.55;;
11305;SDS011;5708;50.660;6.778;2022-08-01T06:35:12;9.73;;;6.10;;
11305;SDS011;5708;50.660;6.778;2022-08-01T06:37:38;9.43;;;5.60;;
11305;SDS011;5708;50.660;6.778;2022-08-01T06:40:07;11.73;;;6.80;;
11305;SDS011;5708;50.660;6.778;2022-08-01T06:42:34;11.07;;;6.18;;
11305;SDS011;5708;50.660;6.778;2022-08-01T06:45:03;10.90;;;6.43;;
11305;SDS011;5708;50.660;6.778;2022-08-01T06:47:32;11.50;;;5.93;;
11305;SDS011;5708;50.660;6.778;2022-08-01T06:49:57;10.07;;;4.68;;
11305;SDS011;5708;50.660;6.778;2022-08-01T06:52:23;9.35;;;4.78;;
11305;SDS011;5708;50.660;6.778;2022-08-01T06:54:48;8.48;;;4.72;;
11305;SDS011;5708;50.660;6.778;2022-08-01T06:57:13;8.95;;;4.90;;
11305;SDS011;5708;50.660;6.778;2022-08-01T06:59:39;11.70;;;5.78;;
11305;SDS011;5708;50.660;6.778;2022-08-01T07:02:04;10.18;;;5.63;;
11305;SDS011;5708;50.660;6.778;2022-08-01T07:04:29;10.50;;;5.60;;
11305;SDS011;5708;50.660;6.778;2022-08-01T07:06:55;13.30;;;5.60;;
11305;SDS011;5708;50.660;6.778;2022-08-01T07:09:20;8.85;;;5.43;;
11305;SDS011;5708;50.660;6.778;2022-08-01T07:11:46;9.18;;;5.25;;
11305;SDS011;5708;50.660;6.778;2022-08-01T07:14:11;9.82;;;5.03;;
11305;SDS011;5708;50.660;6.778;2022-08-01T07:16:36;11.32;;;4.68;;
11305;SDS011;5708;50.660;6.778;2022-08-01T07:19:02;9.10;;;6.13;;
11305;SDS011;5708;50.660;6.778;2022-08-01T07:21:27;10.63;;;6.88;;
11305;SDS011;5708;50.660;6.778;2022-08-01T07:23:52;11.98;;;7.47;;
11305;SDS011;5708;50.660;6.778;2022-08-01T07:26:18;13.45;;;7.53;;
11305;SDS011;5708;50.660;6.778;2022-08-01T07:28:43;12.43;;;8.40;;
11305;SDS011;5708;50.660;6.778;2022-08-01T07:31:09;12.15;;;8.13;;
11305;SDS011;5708;50.660;6.778;2022-08-01T07:33:34;13.88;;;7.80;;
11305;SDS011;5708;50.660;6.778;2022-08-01T07:35:59;12.20;;;8.32;;
11305;SDS011;5708;50.660;6.778;2022-08-01T07:38:25;13.02;;;8.40;;
11305;SDS011;5708;50.660;6.778;2022-08-01T07:40:50;13.73;;;8.65;;
11305;SDS011;5708;50.660;6.778;2022-08-01T07:43:16;14.07;;;8.80;;
11305;SDS011;5708;50.660;6.778;2022-08-01T07:45:41;12.43;;;8.80;;
11305;SDS011;5708;50.660;6.778;2022-08-01T07:48:07;14.02;;;9.35;;
11305;SDS011;5708;50.660;6.778;2022-08-01T07:50:33;14.48;;;9.15;;
11305;SDS011;5708;50.660;6.778;2022-08-01T07:52:59;14.00;;;10.02;;
11305;SDS011;5708;50.660;6.778;2022-08-01T07:55:24;16.65;;;10.38;;
11305;SDS011;5708;50.660;6.778;2022-08-01T07:57:50;18.58;;;11.35;;
11305;SDS011;5708;50.660;6.778;2022-08-01T08:00:16;16.70;;;11.30;;
11305;SDS011;5708;50.660;6.778;2022-08-01T08:02:41;13.30;;;10.15;;
11305;SDS011;5708;50.660;6.778;2022-08-01T08:05:07;13.55;;;10.25;;
11305;SDS011;5708;50.660;6.778;2022-08-01T08:07:32;13.15;;;9.10;;
11305;SDS011;5708;50.660;6.778;2022-08-01T08:09:58;14.73;;;9.98;;
11305;SDS011;5708;50.660;6.778;2022-08-01T08:12:23;18.55;;;11.07;;
11305;SDS011;5708;50.660;6.778;2022-08-01T08:14:49;14.70;;;10.10;;
11305;SDS011;5708;50.660;6.778;2022-08-01T08:17:14;14.38;;;10.90;;
11305;SDS011;5708;50.660;6.778;2022-08-01T08:19:39;16.60;;;10.27;;
11305;SDS011;5708;50.660;6.778;2022-08-01T08:22:05;15.50;;;9.77;;
11305;SDS011;5708;50.660;6.778;2022-08-01T08:24:34;13.38;;;8.88;;
11305;SDS011;5708;50.660;6.778;2022-08-01T08:27:00;17.65;;;9.68;;
11305;SDS011;5708;50.660;6.778;2022-08-01T08:29:26;16.38;;;8.82;;
11305;SDS011;5708;50.660;6.778;2022-08-01T08:31:54;12.82;;;8.50;;
11305;SDS011;5708;50.660;6.778;2022-08-01T08:34:20;12.10;;;8.13;;
11305;SDS011;5708;50.660;6.778;2022-08-01T08:36:46;13.20;;;9.35;;
11305;SDS011;5708;50.660;6.778;2022-08-01T08:39:11;12.48;;;8.38;;
11305;SDS011;5708;50.660;6.778;2022-08-01T08:41:37;12.40;;;8.30;;
11305;SDS011;5708;50.660;6.778;2022-08-01T08:44:03;10.77;;;7.03;;
11305;SDS011;5708;50.660;6.778;2022-08-01T08:46:32;10.60;;;6.93;;
11305;SDS011;5708;50.660;6.778;2022-08-01T08:48:59;14.23;;;9.18;;
11305;SDS011;5708;50.660;6.778;2022-08-01T08:51:29;14.00;;;8.73;;
11305;SDS011;5708;50.660;6.778;2022-08-01T08:53:56;12.48;;;9.50;;
11305;SDS011;5708;50.660;6.778;2022-08-01T08:56:23;12.95;;;9.07;;
11305;SDS011;5708;50.660;6.778;2022-08-01T08:58:49;13.27;;;8.52;;
11305;SDS011;5708;50.660;6.778;2022-08-01T09:01:15;13.05;;;8.50;;
11305;SDS011;5708;50.660;6.778;2022-08-01T09:03:42;11.70;;;8.25;;
11305;SDS011;5708;50.660;6.778;2022-08-01T09:06:07;12.73;;;8.43;;
11305;SDS011;5708;50.660;6.778;2022-08-01T09:08:33;12.70;;;7.72;;
11305;SDS011;5708;50.660;6.778;2022-08-01T09:10:58;12.57;;;8.15;;
11305;SDS011;5708;50.660;6.778;2022-08-01T09:13:24;11.70;;;7.72;;
11305;SDS011;5708;50.660;6.778;2022-08-01T09:15:50;11.23;;;7.80;;
11305;SDS011;5708;50.660;6.778;2022-08-01T09:23:34;10.75;;;6.78;;
11305;SDS011;5708;50.660;6.778;2022-08-01T09:26:47;11.40;;;6.10;;
11305;SDS011;5708;50.660;6.778;2022-08-01T09:29:04;14.95;;;7.07;;
11305;SDS011;5708;50.660;6.778;2022-08-01T09:31:38;9.70;;;5.70;;
11305;SDS011;5708;50.660;6.778;2022-08-01T09:34:05;8.65;;;6.00;;
11305;SDS011;5708;50.660;6.778;2022-08-01T09:36:44;9.98;;;6.53;;
11305;SDS011;5708;50.660;6.778;2022-08-01T09:39:26;9.82;;;6.38;;
11305;SDS011;5708;50.660;6.778;2022-08-01T09:41:53;10.90;;;6.65;;
11305;SDS011;5708;50.660;6.778;2022-08-01T09:44:24;8.98;;;6.10;;
11305;SDS011;5708;50.660;6.778;2022-08-01T09:47:02;9.15;;;5.80;;
11305;SDS011;5708;50.660;6.778;2022-08-01T09:49:30;9.95;;;5.78;;
11305;SDS011;5708;50.660;6.778;2022-08-01T09:51:57;9.50;;;6.60;;
11305;SDS011;5708;50.660;6.778;2022-08-01T09:54:30;10.40;;;6.10;;
11305;SDS011;5708;50.660;6.778;2022-08-01T09:59:53;8.35;;;5.55;;
11305;SDS011;5708;50.660;6.778;2022-08-01T10:02:33;8.15;;;5.15;;
11305;SDS011;5708;50.660;6.778;2022-08-01T10:04:59;9.63;;;5.30;;
11305;SDS011;5708;50.660;6.778;2022-08-01T10:07:25;8.27;;;4.57;;
11305;SDS011;5708;50.660;6.778;2022-08-01T10:09:50;8.80;;;5.13;;
11305;SDS011;5708;50.660;6.778;2022-08-01T10:12:17;11.23;;;6.35;;
11305;SDS011;5708;50.660;6.778;2022-08-01T10:14:45;9.98;;;5.78;;
11305;SDS011;5708;50.660;6.778;2022-08-01T10:17:15;9.95;;;6.05;;
11305;SDS011;5708;50.660;6.778;2022-08-01T10:19:41;7.82;;;5.93;;
11305;SDS011;5708;50.660;6.778;2022-08-01T10:22:08;11.73;;;7.70;;
11305;SDS011;5708;50.660;6.778;2022-08-01T10:24:38;8.60;;;6.03;;
11305;SDS011;5708;50.660;6.778;2022-08-01T10:27:06;9.75;;;6.40;;
11305;SDS011;5708;50.660;6.778;2022-08-01T10:29:55;8.48;;;5.80;;
11305;SDS011;5708;50.660;6.778;2022-08-01T10:32:22;9.23;;;5.70;;
11305;SDS011;5708;50.660;6.778;2022-08-01T10:34:51;8.07;;;5.40;;
11305;SDS011;5708;50.660;6.778;2022-08-01T10:37:17;7.97;;;4.82;;
11305;SDS011;5708;50.660;6.778;2022-08-01T10:39:42;9.85;;;5.50;;
11305;SDS011;5708;50.660;6.778;2022-08-01T10:42:11;9.60;;;5.38;;
11305;SDS011;5708;50.660;6.778;2022-08-01T10:44:37;10.60;;;4.82;;
11305;SDS011;5708;50.660;6.778;2022-08-01T10:47:08;8.52;;;4.60;;
11305;SDS011;5708;50.660;6.778;2022-08-01T10:49:36;8.30;;;4.50;;
11305;SDS011;5708;50.660;6.778;2022-08-01T10:52:06;6.80;;;4.03;;
11305;SDS011;5708;50.660;6.778;2022-08-01T10:54:37;8.35;;;4.47;;
11305;SDS011;5708;50.660;6.778;2022-08-01T10:57:03;8.85;;;5.55;;
11305;SDS011;5708;50.660;6.778;2022-08-01T10:59:30;8.27;;;5.63;;
11305;SDS011;5708;50.660;6.778;2022-08-01T11:02:03;8.73;;;5.65;;
11305;SDS011;5708;50.660;6.778;2022-08-01T11:04:33;13.73;;;6.00;;
11305;SDS011;5708;50.660;6.778;2022-08-01T11:07:07;10.73;;;6.03;;
11305;SDS011;5708;50.660;6.778;2022-08-01T11:09:41;9.43;;;6.15;;
11305;SDS011;5708;50.660;6.778;2022-08-01T11:12:08;12.82;;;6.15;;
11305;SDS011;5708;50.660;6.778;2022-08-01T11:14:34;11.10;;;6.25;;
11305;SDS011;5708;50.660;6.778;2022-08-01T11:25:22;7.65;;;4.28;;
11305;SDS011;5708;50.660;6.778;2022-08-01T11:27:48;7.40;;;4.50;;
11305;SDS011;5708;50.660;6.778;2022-08-01T11:33:12;10.03;;;5.33;;
11305;SDS011;5708;50.660;6.778;2022-08-01T11:35:31;10.50;;;5.40;;
11305;SDS011;5708;50.660;6.778;2022-08-01T11:37:57;11.32;;;6.30;;
11305;SDS011;5708;50.660;6.778;2022-08-01T11:41:09;14.57;;;8.23;;
11305;SDS011;5708;50.660;6.778;2022-08-01T11:44:13;13.25;;;9.23;;
11305;SDS011;5708;50.660;6.778;2022-08-01T11:46:59;14.32;;;9.70;;
11305;SDS011;5708;50.660;6.778;2022-08-01T11:52:13;11.73;;;8.98;;
11305;SDS011;5708;50.660;6.778;2022-08-01T11:57:22;11.23;;;8.35;;
11305;SDS011;5708;50.660;6.778;2022-08-01T12:02:17;11.15;;;8.10;;
11305;SDS011;5708;50.660;6.778;2022-08-01T12:07:26;10.30;;;8.07;;
11305;SDS011;5708;50.660;6.778;2022-08-01T12:09:56;10.20;;;7.60;;
11305;SDS011;5708;50.660;6.778;2022-08-01T12:12:23;11.18;;;8.05;;
11305;SDS011;5708;50.660;6.778;2022-08-01T12:14:52;10.52;;;7.55;;
11305;SDS011;5708;50.660;6.778;2022-08-01T12:17:28;10.80;;;7.32;;
11305;SDS011;5708;50.660;6.778;2022-08-01T12:19:56;10.32;;;7.00;;
11305;SDS011;5708;50.660;6.778;2022-08-01T12:22:22;11.18;;;6.35;;
11305;SDS011;5708;50.660;6.778;2022-08-01T12:24:48;10.75;;;6.63;;
11305;SDS011;5708;50.660;6.778;2022-08-01T12:27:23;8.95;;;5.85;;
11305;SDS011;5708;50.660;6.778;2022-08-01T12:29:57;8.80;;;5.97;;
11305;SDS011;5708;50.660;6.778;2022-08-01T12:32:24;8.98;;;5.88;;
11305;SDS011;5708;50.660;6.778;2022-08-01T12:35:00;10.05;;;6.50;;
11305;SDS011;5708;50.660;6.778;2022-08-01T12:37:39;10.25;;;5.45;;
11305;SDS011;5708;50.660;6.778;2022-08-01T12:40:10;8.93;;;5.00;;
11305;SDS011;5708;50.660;6.778;2022-08-01T12:42:40;9.48;;;5.60;;
11305;SDS011;5708;50.660;6.778;2022-08-01T12:45:07;9.38;;;6.60;;
11305;SDS011;5708;50.660;6.778;2022-08-01T12:47:34;9.48;;;5.80;;
11305;SDS011;5708;50.660;6.778;2022-08-01T12:50:00;8.02;;;4.40;;
11305;SDS011;5708;50.660;6.778;2022-08-01T12:52:26;7.63;;;5.00;;
11305;SDS011;5708;50.660;6.778;2022-08-01T12:55:05;5.97;;;3.47;;
11305;SDS011;5708;50.660;6.778;2022-08-01T12:57:33;5.43;;;2.85;;
11305;SDS011;5708;50.660;6.778;2022-08-01T13:00:09;5.93;;;2.67;;
11305;SDS011;5708;50.660;6.778;2022-08-01T13:02:39;5.47;;;3.20;;
11305;SDS011;5708;50.660;6.778;2022-08-01T13:05:06;5.60;;;3.40;;
11305;SDS011;5708;50.660;6.778;2022-08-01T13:07:50;6.65;;;3.70;;
11305;SDS011;5708;50.660;6.778;2022-08-01T13:10:24;5.82;;;3.95;;
11305;SDS011;5708;50.660;6.778;2022-08-01T13:12:52;6.40;;;3.83;;
11305;SDS011;5708;50.660;6.778;2022-08-01T13:15:37;8.35;;;4.55;;
11305;SDS011;5708;50.660;6.778;2022-08-01T13:21:11;5.70;;;3.80;;
11305;SDS011;5708;50.660;6.778;2022-08-01T13:26:46;6.35;;;4.20;;
11305;SDS011;5708;50.660;6.778;2022-08-01T13:31:41;5.57;;;3.60;;
11305;SDS011;5708;50.660;6.778;2022-08-01T13:34:08;6.97;;;3.65;;
11305;SDS011;5708;50.660;6.778;2022-08-01T13:36:34;4.55;;;3.40;;
11305;SDS011;5708;50.660;6.778;2022-08-01T13:39:00;5.93;;;3.63;;
11305;SDS011;5708;50.660;6.778;2022-08-01T13:41:44;6.22;;;3.20;;
11305;SDS011;5708;50.660;6.778;2022-08-01T13:44:10;5.72;;;3.35;;
11305;SDS011;5708;50.660;6.778;2022-08-01T13:46:39;5.30;;;3.38;;
11305;SDS011;5708;50.660;6.778;2022-08-01T13:49:05;6.13;;;3.85;;
11305;SDS011;5708;50.660;6.778;2022-08-01T13:51:31;6.50;;;3.65;;
11305;SDS011;5708;50.660;6.778;2022-08-01T13:53:57;6.32;;;3.80;;
11305;SDS011;5708;50.660;6.778;2022-08-01T13:56:22;7.72;;;4.00;;
11305;SDS011;5708;50.660;6.778;2022-08-01T13:58:48;6.65;;;3.75;;
11305;SDS011;5708;50.660;6.778;2022-08-01T14:01:13;5.45;;;3.83;;
11305;SDS011;5708;50.660;6.778;2022-08-01T14:03:39;7.57;;;3.90;;
11305;SDS011;5708;50.660;6.778;2022-08-01T14:06:04;6.03;;;3.70;;
11305;SDS011;5708;50.660;6.778;2022-08-01T14:08:30;6.60;;;3.72;;
11305;SDS011;5708;50.660;6.778;2022-08-01T14:10:55;7.28;;;3.80;;
11305;SDS011;5708;50.660;6.778;2022-08-01T14:13:23;8.02;;;3.45;;
11305;SDS011;5708;50.660;6.778;2022-08-01T14:15:52;6.32;;;3.40;;
11305;SDS011;5708;50.660;6.778;2022-08-01T14:18:17;5.55;;;3.60;;
11305;SDS011;5708;50.660;6.778;2022-08-01T14:20:43;5.78;;;3.25;;
11305;SDS011;5708;50.660;6.778;2022-08-01T14:23:08;5.68;;;3.50;;
11305;SDS011;5708;50.660;6.778;2022-08-01T14:25:34;4.63;;;2.80;;
11305;SDS011;5708;50.660;6.778;2022-08-01T14:27:59;4.82;;;2.92;;
11305;SDS011;5708;50.660;6.778;2022-08-01T14:30:25;4.47;;;2.45;;
11305;SDS011;5708;50.660;6.778;2022-08-01T14:32:50;5.07;;;3.13;;
11305;SDS011;5708;50.660;6.778;2022-08-01T14:35:15;5.35;;;2.97;;
11305;SDS011;5708;50.660;6.778;2022-08-01T14:37:41;5.38;;;3.17;;
11305;SDS011;5708;50.660;6.778;2022-08-01T14:40:06;5.82;;;3.10;;
11305;SDS011;5708;50.660;6.778;2022-08-01T14:42:34;4.97;;;3.00;;
11305;SDS011;5708;50.660;6.778;2022-08-01T14:45:00;5.78;;;3.03;;
11305;SDS011;5708;50.660;6.778;2022-08-01T14:47:26;6.43;;;3.33;;
11305;SDS011;5708;50.660;6.778;2022-08-01T14:49:51;3.95;;;2.90;;
11305;SDS011;5708;50.660;6.778;2022-08-01T14:52:17;4.10;;;2.67;;
11305;SDS011;5708;50.660;6.778;2022-08-01T14:54:42;4.93;;;2.90;;
11305;SDS011;5708;50.660;6.778;2022-08-01T14:57:08;4.15;;;2.88;;
11305;SDS011;5708;50.660;6.778;2022-08-01T14:59:33;5.88;;;2.85;;
11305;SDS011;5708;50.660;6.778;2022-08-01T15:01:58;5.95;;;3.35;;
11305;SDS011;5708;50.660;6.778;2022-08-01T15:04:24;8.35;;;3.22;;
11305;SDS011;5708;50.660;6.778;2022-08-01T15:06:49;4.38;;;3.20;;
11305;SDS011;5708;50.660;6.778;2022-08-01T15:09:14;5.22;;;2.55;;
11305;SDS011;5708;50.660;6.778;2022-08-01T15:11:40;4.10;;;2.60;;
11305;SDS011;5708;50.660;6.778;2022-08-01T15:14:05;7.18;;;2.67;;
11305;SDS011;5708;50.660;6.778;2022-08-01T15:16:49;4.05;;;2.67;;
11305;SDS011;5708;50.660;6.778;2022-08-01T15:19:15;4.20;;;2.70;;
11305;SDS011;5708;50.660;6.778;2022-08-01T15:21:40;5.38;;;2.92;;
11305;SDS011;5708;50.660;6.778;2022-08-01T15:24:05;4.68;;;3.50;;
11305;SDS011;5708;50.660;6.778;2022-08-01T15:26:31;4.47;;;2.65;;
11305;SDS011;5708;50.660;6.778;2022-08-01T15:28:56;5.75;;;3.40;;
11305;SDS011;5708;50.660;6.778;2022-08-01T15:31:22;3.72;;;2.63;;
11305;SDS011;5708;50.660;6.778;2022-08-01T15:33:47;6.00;;;3.20;;
11305;SDS011;5708;50.660;6.778;2022-08-01T15:36:13;6.63;;;3.35;;
11305;SDS011;5708;50.660;6.778;2022-08-01T15:38:38;4.03;;;2.40;;
11305;SDS011;5708;50.660;6.778;2022-08-01T15:41:03;3.35;;;1.90;;
11305;SDS011;5708;50.660;6.778;2022-08-01T15:43:29;4.07;;;2.00;;